createdAt,value
2023-05-19T00:00:10.927Z,69.64
2023-05-19T00:01:10.931Z,69.14
2023-05-19T00:02:10.974Z,68.99
2023-05-19T00:03:11.045Z,68.83
2023-05-19T00:04:10.961Z,68.83
2023-05-19T00:05:10.966Z,69.03
2023-05-19T00:06:11.024Z,69.05
2023-05-19T00:07:10.882Z,69.14
2023-05-19T00:08:10.976Z,69.64
2023-05-19T00:09:10.904Z,69.89
2023-05-19T00:10:10.895Z,69.87
2023-05-19T00:11:10.875Z,69.89
2023-05-19T00:12:10.908Z,69.79
2023-05-19T00:13:10.869Z,69.42
2023-05-19T00:14:10.908Z,68.68
2023-05-19T00:15:10.828Z,68.29
2023-05-19T00:16:10.847Z,68.13
2023-05-19T00:17:10.803Z,68.44
2023-05-19T00:18:10.956Z,68.60
2023-05-19T00:19:10.927Z,68.63
2023-05-19T00:20:10.894Z,68.80
2023-05-19T00:21:10.960Z,68.90
2023-05-19T00:22:10.866Z,69.04
2023-05-19T00:23:11.308Z,69.33
2023-05-19T00:25:30.953Z,69.84
2023-05-19T00:27:50.427Z,69.64
2023-05-19T00:32:09.201Z,70.57
2023-05-19T00:33:09.041Z,70.41
2023-05-19T00:34:08.912Z,70.65
2023-05-19T00:35:09.517Z,70.64
2023-05-19T00:36:08.930Z,70.79
2023-05-19T00:37:09.543Z,70.76
2023-05-19T00:38:08.928Z,71.06
2023-05-19T00:39:08.863Z,70.89
2023-05-19T00:40:08.944Z,70.67
2023-05-19T00:41:08.887Z,70.60
2023-05-19T00:42:09.521Z,70.50
2023-05-19T00:43:08.951Z,70.55
2023-05-19T00:44:09.376Z,70.55
2023-05-19T00:45:08.865Z,71.31
2023-05-19T00:46:08.919Z,71.33
2023-05-19T00:47:08.873Z,71.48
2023-05-19T00:48:08.821Z,71.50
2023-05-19T00:49:08.791Z,71.69
2023-05-19T00:50:08.753Z,71.60
2023-05-19T00:51:09.521Z,71.40
2023-05-19T00:52:08.755Z,70.99
2023-05-19T00:53:08.798Z,70.41
2023-05-19T00:54:08.743Z,69.97
2023-05-19T00:55:08.740Z,69.99
2023-05-19T00:58:18.333Z,72.30
2023-05-19T01:06:07.014Z,73.35
2023-05-19T01:07:06.637Z,71.79
2023-05-19T01:08:06.660Z,71.76
2023-05-19T01:09:06.661Z,71.79
2023-05-19T01:10:06.664Z,71.69
2023-05-19T01:12:26.915Z,72.03
2023-05-19T01:18:13.879Z,74.40
2023-05-19T01:19:01.468Z,73.10
2023-05-19T01:20:01.417Z,73.08
2023-05-19T01:21:01.421Z,73.00
2023-05-19T01:22:01.524Z,72.94
2023-05-19T01:23:03.205Z,73.08
2023-05-19T01:24:01.622Z,73.36
2023-05-19T01:26:20.915Z,74.57
2023-05-19T01:30:30.442Z,76.26
2023-05-19T01:31:30.229Z,74.67
2023-05-19T01:34:25.132Z,74.83
2023-05-19T01:35:25.378Z,74.64
2023-05-19T01:36:31.018Z,75.02
2023-05-19T01:39:02.023Z,76.67
2023-05-19T01:43:21.414Z,75.44
2023-05-19T01:46:29.634Z,77.45
2023-05-19T01:48:49.613Z,75.73
2023-05-19T01:49:48.738Z,75.29
2023-05-19T01:50:49.694Z,75.17
2023-05-19T01:51:48.950Z,75.01
2023-05-19T01:52:48.638Z,75.13
2023-05-19T01:55:47.507Z,76.82
2023-05-19T01:58:06.406Z,75.74
2023-05-19T01:59:06.401Z,75.90
2023-05-19T02:00:06.335Z,76.14
2023-05-19T02:01:06.407Z,76.14
2023-05-19T02:02:06.383Z,76.30
2023-05-19T02:03:06.347Z,76.31
2023-05-19T02:04:06.370Z,76.33
2023-05-19T02:05:06.935Z,76.34
2023-05-19T02:07:25.981Z,76.65
2023-05-19T02:10:52.925Z,78.74
2023-05-19T02:11:52.174Z,77.30
2023-05-19T02:12:52.150Z,77.23
2023-05-19T02:16:05.337Z,79.58
2023-05-19T02:16:52.243Z,78.17
2023-05-19T02:17:52.434Z,78.05
2023-05-19T02:18:52.329Z,77.97
2023-05-19T02:19:52.265Z,77.85
2023-05-19T02:20:52.340Z,77.63
2023-05-19T02:21:52.280Z,77.55
2023-05-19T02:22:52.403Z,77.65
2023-05-19T02:23:52.252Z,77.93
2023-05-19T02:24:52.848Z,77.83
2023-05-19T02:25:52.300Z,77.88
2023-05-19T02:26:52.198Z,77.88
2023-05-19T02:27:53.195Z,77.82
2023-05-19T02:28:52.181Z,77.85
2023-05-19T02:29:52.203Z,77.66
2023-05-19T02:30:52.218Z,77.65
2023-05-19T02:31:52.212Z,77.61
2023-05-19T02:32:52.153Z,77.73
2023-05-19T02:33:52.150Z,77.81
2023-05-19T02:34:52.154Z,77.92
2023-05-19T02:35:52.176Z,77.87
2023-05-19T02:36:53.167Z,77.90
2023-05-19T02:37:52.917Z,77.95
2023-05-19T02:38:52.169Z,77.93
2023-05-19T02:39:52.777Z,77.86
2023-05-19T02:42:12.878Z,78.35
2023-05-19T02:44:32.527Z,78.20
2023-05-19T02:55:01.505Z,79.01
2023-05-19T03:05:07.998Z,79.85
2023-05-19T03:06:07.831Z,79.49
2023-05-19T03:07:07.785Z,79.23
2023-05-19T03:08:07.674Z,79.03
2023-05-19T03:09:07.676Z,78.95
2023-05-19T03:10:07.669Z,78.75
2023-05-19T03:11:07.684Z,78.85
2023-05-19T03:12:07.818Z,78.95
2023-05-19T03:13:07.638Z,78.87
2023-05-19T03:14:07.643Z,78.62
2023-05-19T03:15:07.637Z,78.45
2023-05-19T03:16:07.698Z,78.61
2023-05-19T03:17:07.772Z,78.81
2023-05-19T03:18:07.639Z,78.66
2023-05-19T03:19:07.592Z,78.61
2023-05-19T03:20:07.615Z,78.56
2023-05-19T03:21:07.635Z,78.58
2023-05-19T03:22:07.737Z,78.56
2023-05-19T03:23:07.741Z,78.50
2023-05-19T03:28:52.650Z,80.79
2023-05-19T03:32:02.122Z,80.97
2023-05-19T03:34:21.479Z,79.36
2023-05-19T03:35:21.549Z,79.17
2023-05-19T03:36:21.626Z,79.08
2023-05-19T03:37:21.446Z,79.10
2023-05-19T03:38:21.357Z,79.14
2023-05-19T03:39:21.410Z,79.09
2023-05-19T03:40:21.327Z,78.93
2023-05-19T03:41:21.378Z,78.78
2023-05-19T03:42:21.331Z,78.73
2023-05-19T03:43:21.395Z,78.69
2023-05-19T03:44:21.385Z,78.61
2023-05-19T03:45:21.311Z,78.41
2023-05-19T03:46:21.559Z,78.16
2023-05-19T03:47:21.315Z,77.95
2023-05-19T03:48:22.026Z,77.80
2023-05-19T03:49:21.292Z,77.84
2023-05-19T03:50:21.289Z,77.84
2023-05-19T03:51:21.332Z,78.16
2023-05-19T03:52:21.299Z,78.37
2023-05-19T03:53:21.307Z,78.49
2023-05-19T03:54:21.295Z,78.59
2023-05-19T03:55:21.313Z,78.49
2023-05-19T03:56:21.240Z,78.46
2023-05-19T03:57:22.292Z,78.59
2023-05-19T03:58:21.248Z,78.51
2023-05-19T03:59:21.220Z,78.78
2023-05-19T04:00:21.244Z,78.75
2023-05-19T04:01:21.220Z,78.77
2023-05-19T04:02:22.154Z,78.77
2023-05-19T04:03:21.420Z,78.82
2023-05-19T04:04:21.233Z,78.96
2023-05-19T04:05:21.202Z,78.80
2023-05-19T04:06:21.213Z,78.86
2023-05-19T04:07:21.149Z,78.75
2023-05-19T04:08:21.181Z,78.86
2023-05-19T04:09:21.158Z,78.85
2023-05-19T04:10:21.126Z,78.84
2023-05-19T04:11:21.125Z,78.80
2023-05-19T04:12:21.236Z,78.71
2023-05-19T04:13:21.209Z,78.77
2023-05-19T04:14:21.301Z,78.75
2023-05-19T04:15:21.308Z,78.74
2023-05-19T04:16:21.491Z,78.60
2023-05-19T04:17:21.459Z,78.41
2023-05-19T04:18:21.435Z,78.43
2023-05-19T04:19:21.549Z,78.18
2023-05-19T04:20:22.239Z,78.09
2023-05-19T04:21:21.699Z,78.30
2023-05-19T04:22:21.606Z,78.48
2023-05-19T04:23:21.614Z,78.23
2023-05-19T04:24:21.668Z,78.01
2023-05-19T04:25:21.738Z,77.92
2023-05-19T04:26:21.738Z,77.75
2023-05-19T04:27:21.783Z,77.91
2023-05-19T04:28:21.811Z,77.95
2023-05-19T04:29:21.894Z,77.62
2023-05-19T04:30:21.831Z,77.44
2023-05-19T04:31:21.972Z,77.35
2023-05-19T04:32:21.955Z,77.21
2023-05-19T04:33:21.982Z,77.15
2023-05-19T04:34:22.025Z,76.95
2023-05-19T04:35:22.092Z,76.29
2023-05-19T04:36:22.120Z,76.00
2023-05-19T04:41:32.661Z,77.42
2023-05-19T04:46:42.911Z,74.64
2023-05-19T04:49:54.082Z,76.62
2023-05-19T04:55:03.567Z,77.49
2023-05-19T04:56:03.349Z,75.77
2023-05-19T04:57:03.646Z,75.71
2023-05-19T05:02:46.895Z,77.67
2023-05-19T05:03:46.804Z,76.13
2023-05-19T05:04:52.341Z,75.73
2023-05-19T05:05:47.328Z,75.56
2023-05-19T05:12:08.947Z,75.48
2023-05-19T05:13:11.142Z,75.20
2023-05-19T05:15:28.390Z,75.22
2023-05-19T05:22:06.228Z,75.44
2023-05-19T05:23:06.020Z,75.12
2023-05-19T05:24:06.484Z,74.30
2023-05-19T05:27:21.305Z,75.41
2023-05-19T05:28:11.392Z,74.05
2023-05-19T05:29:11.859Z,74.04
2023-05-19T05:32:22.711Z,75.91
2023-05-19T05:34:42.516Z,74.57
2023-05-19T05:40:09.159Z,75.29
2023-05-19T05:41:08.915Z,73.65
2023-05-19T05:46:53.935Z,76.12
2023-05-19T05:49:28.315Z,75.40
2023-05-19T05:52:16.945Z,74.42
2023-05-19T05:57:53.843Z,74.09
2023-05-19T05:58:40.468Z,72.66
2023-05-19T05:59:40.466Z,72.08
2023-05-19T06:00:41.940Z,72.17
2023-05-19T06:03:01.063Z,71.45
2023-05-19T06:07:22.163Z,71.98
2023-05-19T06:08:12.031Z,71.09
2023-05-19T06:10:32.659Z,70.49
2023-05-19T06:13:31.016Z,71.41
2023-05-19T06:17:02.999Z,71.01
2023-05-19T06:18:02.602Z,68.69
2023-05-19T06:19:02.843Z,68.14
2023-05-19T06:20:02.571Z,68.10
2023-05-19T06:25:16.309Z,68.02
2023-05-19T06:26:16.072Z,67.95
2023-05-19T06:29:44.581Z,69.51
2023-05-19T06:30:31.313Z,67.19
2023-05-19T06:35:36.827Z,68.58
2023-05-19T06:40:37.588Z,66.84
2023-05-19T06:41:37.193Z,66.51
2023-05-19T06:42:37.039Z,66.12
2023-05-19T06:47:44.667Z,67.03
2023-05-19T06:52:04.351Z,65.13
2023-05-19T06:53:02.992Z,64.92
2023-05-19T06:54:03.216Z,64.85
2023-05-19T06:56:37.801Z,65.43
2023-05-19T06:57:24.850Z,64.20
2023-05-19T06:58:24.858Z,63.68
2023-05-19T06:59:24.861Z,62.84
2023-05-19T07:00:24.868Z,62.76
2023-05-19T07:01:25.107Z,62.98
2023-05-19T07:02:25.076Z,63.21
2023-05-19T07:03:24.997Z,63.33
2023-05-19T07:04:24.847Z,63.40
2023-05-19T07:05:24.887Z,63.49
2023-05-19T07:06:24.816Z,63.34
2023-05-19T07:07:24.814Z,63.01
2023-05-19T07:08:24.777Z,63.01
2023-05-19T07:09:24.721Z,63.14
2023-05-19T07:10:24.827Z,63.13
2023-05-19T07:11:24.800Z,62.91
2023-05-19T07:12:24.766Z,62.33
2023-05-19T07:13:27.232Z,62.54
2023-05-19T07:26:16.536Z,62.33
2023-05-19T07:27:01.775Z,60.04
2023-05-19T07:29:21.364Z,58.92
2023-05-19T07:30:21.413Z,58.44
2023-05-19T07:31:21.527Z,58.09
2023-05-19T07:32:21.584Z,58.33
2023-05-19T07:36:43.244Z,58.99
2023-05-19T07:37:42.528Z,57.43
2023-05-19T07:38:42.605Z,57.24
2023-05-19T07:39:43.134Z,57.57
2023-05-19T07:40:42.995Z,57.52
2023-05-19T07:41:42.624Z,57.12
2023-05-19T07:42:42.451Z,56.80
2023-05-19T07:43:42.482Z,56.64
2023-05-19T07:44:42.465Z,55.88
2023-05-19T07:45:42.514Z,55.28
2023-05-19T07:46:42.501Z,54.02
2023-05-19T07:47:43.470Z,53.04
2023-05-19T07:50:30.829Z,52.96
2023-05-19T07:52:50.473Z,50.60
2023-05-19T07:53:50.009Z,49.71
2023-05-19T07:54:50.259Z,48.82
2023-05-19T07:55:50.206Z,49.50
2023-05-19T07:56:50.037Z,49.73
2023-05-19T07:57:50.094Z,50.34
2023-05-19T07:58:50.033Z,50.42
2023-05-19T07:59:49.956Z,50.73
2023-05-19T08:00:50.042Z,50.68
2023-05-19T08:01:50.003Z,49.74
2023-05-19T08:02:50.075Z,48.18
2023-05-19T08:03:50.169Z,46.74
2023-05-19T08:04:50.092Z,46.74
2023-05-19T08:05:50.059Z,47.59
2023-05-19T08:06:49.901Z,48.26
2023-05-19T08:07:49.907Z,48.68
2023-05-19T08:08:49.905Z,49.13
2023-05-19T08:09:49.896Z,49.30
2023-05-19T08:10:50.194Z,49.57
2023-05-19T08:11:49.898Z,50.02
2023-05-19T08:12:49.949Z,50.82
2023-05-19T08:13:49.928Z,50.79
2023-05-19T08:14:49.929Z,50.31
2023-05-19T08:15:50.001Z,50.13
2023-05-19T08:16:50.759Z,49.93
2023-05-19T08:17:49.892Z,50.13
2023-05-19T08:18:50.779Z,50.25
2023-05-19T08:19:50.750Z,50.09
2023-05-19T08:20:49.883Z,50.24
2023-05-19T08:21:50.817Z,50.04
2023-05-19T08:22:49.792Z,49.30
2023-05-19T08:23:49.822Z,48.42
2023-05-19T08:24:52.832Z,47.86
2023-05-19T08:25:49.788Z,47.47
2023-05-19T08:26:49.772Z,46.88
2023-05-19T08:27:50.759Z,47.06
2023-05-19T08:28:50.393Z,47.31
2023-05-19T08:31:09.129Z,45.06
2023-05-19T08:35:44.548Z,41.60
2023-05-19T08:38:19.309Z,41.51
2023-05-19T08:39:32.915Z,40.48
2023-05-19T08:40:20.734Z,40.45
2023-05-19T08:44:02.438Z,41.59
2023-05-19T08:44:48.077Z,40.99
2023-05-19T08:47:43.801Z,41.91
2023-05-19T08:51:06.444Z,40.39
2023-05-19T08:52:05.428Z,39.16
2023-05-19T08:53:05.451Z,39.14
2023-05-19T08:54:05.328Z,39.79
2023-05-19T08:56:57.398Z,41.03
2023-05-19T08:59:16.623Z,43.53
2023-05-19T09:00:16.101Z,43.79
2023-05-19T09:04:07.078Z,45.40
2023-05-19T09:09:37.015Z,43.37
2023-05-19T09:10:36.064Z,41.89
2023-05-19T09:11:36.053Z,41.17
2023-05-19T09:12:36.005Z,41.03
2023-05-19T09:13:36.018Z,41.47
2023-05-19T09:14:36.151Z,41.24
2023-05-19T09:15:36.188Z,40.73
2023-05-19T09:16:36.277Z,40.57
2023-05-19T09:17:36.272Z,40.29
2023-05-19T09:18:36.249Z,40.08
2023-05-19T09:19:36.121Z,39.09
2023-05-19T09:24:33.703Z,40.74
2023-05-19T09:25:33.815Z,41.01
2023-05-19T09:26:33.656Z,41.13
2023-05-19T09:27:33.546Z,41.14
2023-05-19T09:28:33.634Z,41.10
2023-05-19T09:29:33.847Z,40.73
2023-05-19T09:30:33.573Z,40.46
2023-05-19T09:40:23.932Z,36.38
2023-05-19T09:41:13.737Z,35.45
2023-05-19T09:42:13.774Z,35.93
2023-05-19T09:43:14.422Z,36.56
2023-05-19T09:44:13.710Z,36.23
2023-05-19T09:45:14.533Z,35.48
2023-05-19T09:46:14.997Z,34.98
2023-05-19T09:47:13.688Z,35.21
2023-05-19T09:48:13.716Z,35.41
2023-05-19T09:49:13.701Z,35.17
2023-05-19T09:50:16.714Z,34.55
2023-05-19T09:56:45.644Z,31.98
2023-05-19T09:57:45.140Z,30.19
2023-05-19T09:58:44.794Z,29.71
2023-05-19T09:59:45.046Z,28.79
2023-05-19T10:02:45.599Z,29.13
2023-05-19T10:03:44.709Z,28.79
2023-05-19T10:04:44.750Z,28.27
2023-05-19T10:08:11.067Z,29.28
2023-05-19T10:09:11.136Z,28.53
2023-05-19T10:10:12.152Z,28.98
2023-05-19T10:11:11.588Z,29.31
2023-05-19T10:12:11.070Z,29.37
2023-05-19T10:13:11.481Z,29.23
2023-05-19T10:14:11.005Z,28.76
2023-05-19T10:15:11.518Z,28.45
2023-05-19T10:20:52.499Z,27.79
2023-05-19T10:21:52.319Z,28.23
2023-05-19T10:22:52.175Z,28.85
2023-05-19T10:23:52.211Z,28.56
2023-05-19T10:24:52.223Z,28.73
2023-05-19T10:25:52.234Z,28.72
2023-05-19T10:26:52.232Z,29.50
2023-05-19T10:27:52.247Z,31.88
2023-05-19T10:28:52.389Z,32.79
2023-05-19T10:29:52.742Z,32.45
2023-05-19T10:30:52.170Z,32.89
2023-05-19T10:31:52.246Z,32.88
2023-05-19T10:32:52.245Z,31.92
2023-05-19T10:33:52.200Z,31.09
2023-05-19T10:34:52.248Z,30.95
2023-05-19T10:35:52.144Z,30.33
2023-05-19T10:36:52.130Z,30.45
2023-05-19T10:37:52.121Z,30.32
2023-05-19T10:38:52.089Z,30.25
2023-05-19T10:39:52.819Z,30.15
2023-05-19T10:40:52.204Z,29.72
2023-05-19T10:41:52.193Z,30.41
2023-05-19T10:42:52.212Z,31.22
2023-05-19T10:43:52.261Z,31.55
2023-05-19T10:44:52.334Z,31.14
2023-05-19T10:45:52.378Z,31.94
2023-05-19T10:46:54.155Z,31.49
2023-05-19T10:47:52.461Z,31.47
2023-05-19T10:48:52.366Z,31.39
2023-05-19T10:49:52.409Z,29.99
2023-05-19T10:50:52.415Z,29.86
2023-05-19T10:51:52.335Z,31.28
2023-05-19T10:52:52.364Z,32.51
2023-05-19T10:53:52.313Z,32.91
2023-05-19T10:54:52.297Z,32.73
2023-05-19T10:55:52.343Z,32.95
2023-05-19T10:56:52.335Z,33.63
2023-05-19T10:57:52.360Z,33.85
2023-05-19T10:58:52.386Z,34.06
2023-05-19T10:59:52.285Z,33.77
2023-05-19T11:00:52.281Z,33.22
2023-05-19T11:01:52.351Z,32.60
2023-05-19T11:02:52.918Z,33.23
2023-05-19T11:03:52.455Z,34.91
2023-05-19T11:04:52.361Z,36.17
2023-05-19T11:05:52.287Z,36.84
2023-05-19T11:06:52.273Z,37.40
2023-05-19T11:07:52.238Z,36.68
2023-05-19T11:08:52.289Z,35.68
2023-05-19T11:09:52.204Z,34.80
2023-05-19T11:10:52.200Z,35.31
2023-05-19T11:11:52.297Z,35.20
2023-05-19T11:12:52.317Z,34.03
2023-05-19T11:13:52.246Z,33.60
2023-05-19T11:14:52.228Z,33.32
2023-05-19T11:15:52.191Z,34.26
2023-05-19T11:16:52.241Z,33.79
2023-05-19T11:17:52.306Z,32.90
2023-05-19T11:18:52.202Z,31.98
2023-05-19T11:19:52.160Z,32.36
2023-05-19T11:20:52.225Z,31.30
2023-05-19T11:21:52.153Z,32.13
2023-05-19T11:22:52.205Z,31.70
2023-05-19T11:23:52.156Z,31.87
2023-05-19T11:24:52.236Z,32.41
2023-05-19T11:27:11.089Z,32.29
2023-05-19T11:28:11.071Z,33.62
2023-05-19T11:29:11.020Z,33.03
2023-05-19T11:30:11.074Z,32.45
2023-05-19T11:34:51.096Z,33.44
2023-05-19T11:35:51.143Z,32.93
2023-05-19T11:38:14.464Z,33.49
2023-05-19T11:42:40.961Z,33.68
2023-05-19T11:43:27.998Z,33.17
2023-05-19T11:50:56.980Z,37.95
2023-05-19T11:51:46.649Z,38.07
2023-05-19T11:52:46.658Z,37.80
2023-05-19T11:55:05.791Z,37.58
2023-05-19T11:56:05.805Z,37.51
2023-05-19T11:57:05.953Z,39.04
2023-05-19T11:58:06.120Z,40.88
2023-05-19T11:59:05.701Z,41.19
2023-05-19T12:00:05.667Z,41.27
2023-05-19T12:01:05.602Z,40.31
2023-05-19T12:02:05.609Z,39.18
2023-05-19T12:03:05.951Z,38.98
2023-05-19T12:04:05.723Z,38.73
2023-05-19T12:05:05.711Z,38.13
2023-05-19T12:06:05.645Z,39.32
2023-05-19T12:07:05.613Z,39.54
2023-05-19T12:08:05.579Z,39.21
2023-05-19T12:09:05.579Z,38.66
2023-05-19T12:10:05.670Z,38.61
2023-05-19T12:11:05.561Z,38.85
2023-05-19T12:12:05.571Z,38.14
2023-05-19T12:13:05.542Z,38.15
2023-05-19T12:14:05.553Z,38.08
2023-05-19T12:15:05.549Z,38.67
2023-05-19T12:16:05.836Z,39.28
2023-05-19T12:17:05.509Z,39.63
2023-05-19T12:18:05.565Z,39.22
2023-05-19T12:21:15.207Z,40.56
2023-05-19T12:22:15.105Z,40.77
2023-05-19T12:23:15.125Z,40.97
2023-05-19T12:24:15.079Z,40.22
2023-05-19T12:30:16.337Z,39.13
2023-05-19T12:31:16.329Z,39.36
2023-05-19T12:32:16.272Z,39.45
2023-05-19T12:33:16.342Z,40.12
2023-05-19T12:34:16.265Z,41.08
2023-05-19T12:37:01.752Z,42.09
2023-05-19T12:45:59.801Z,42.58
2023-05-19T12:46:51.848Z,41.48
2023-05-19T12:50:54.737Z,41.79
2023-05-19T12:51:54.422Z,40.32
2023-05-19T12:52:54.383Z,40.10
2023-05-19T12:59:10.472Z,40.08
2023-05-19T13:01:29.786Z,40.29
2023-05-19T13:02:29.472Z,40.15
2023-05-19T13:03:29.496Z,40.10
2023-05-19T13:04:29.378Z,39.26
2023-05-19T13:05:29.363Z,38.95
2023-05-19T13:06:29.353Z,39.26
2023-05-19T13:11:16.993Z,41.47
2023-05-19T13:12:16.809Z,40.48
2023-05-19T13:13:16.839Z,40.41
2023-05-19T13:14:16.760Z,39.59
2023-05-19T13:17:22.331Z,39.92
2023-05-19T13:18:22.057Z,39.61
2023-05-19T13:19:25.720Z,40.37
2023-05-19T13:22:29.474Z,42.11
2023-05-19T13:23:21.898Z,41.31
2023-05-19T13:24:21.818Z,41.34
2023-05-19T13:25:21.813Z,41.32
2023-05-19T13:26:21.741Z,40.61
2023-05-19T13:27:21.735Z,40.80
2023-05-19T13:28:23.517Z,39.76
2023-05-19T13:29:22.063Z,39.01
2023-05-19T13:30:21.800Z,39.42
2023-05-19T13:31:21.796Z,40.51
2023-05-19T13:32:21.782Z,41.09
2023-05-19T13:33:21.840Z,41.50
2023-05-19T13:34:21.709Z,41.07
2023-05-19T13:35:21.703Z,41.06
2023-05-19T13:36:21.751Z,41.28
2023-05-19T13:37:21.784Z,41.31
2023-05-19T13:38:21.711Z,41.48
2023-05-19T13:39:21.749Z,40.89
2023-05-19T13:40:21.721Z,40.72
2023-05-19T13:41:21.751Z,39.89
2023-05-19T13:42:21.750Z,39.93
2023-05-19T13:51:32.406Z,40.73
2023-05-19T13:52:31.977Z,40.38
2023-05-19T13:56:50.395Z,42.32
2023-05-19T13:59:09.644Z,43.97
2023-05-19T14:00:09.431Z,43.57
2023-05-19T14:01:09.467Z,43.88
2023-05-19T14:02:09.564Z,43.95
2023-05-19T14:04:59.623Z,44.07
2023-05-19T14:07:18.017Z,42.26
2023-05-19T14:08:18.222Z,42.47
2023-05-19T14:09:17.913Z,43.07
2023-05-19T14:10:17.919Z,43.05
2023-05-19T14:11:17.926Z,42.52
2023-05-19T14:12:17.968Z,42.23
2023-05-19T14:13:32.535Z,42.31
2023-05-19T14:14:18.856Z,42.59
2023-05-19T14:15:17.857Z,42.31
2023-05-19T14:16:17.913Z,42.04
2023-05-19T14:17:18.564Z,41.45
2023-05-19T14:18:17.916Z,41.31
2023-05-19T14:19:17.876Z,40.87
2023-05-19T14:20:17.890Z,40.95
2023-05-19T14:21:18.338Z,41.34
2023-05-19T14:24:30.352Z,43.40
2023-05-19T14:27:24.249Z,44.96
2023-05-19T14:28:24.082Z,43.14
2023-05-19T14:30:43.452Z,44.33
2023-05-19T14:31:43.338Z,43.25
2023-05-19T14:34:02.707Z,43.40
2023-05-19T14:35:02.570Z,43.10
2023-05-19T14:36:02.718Z,43.52
2023-05-19T14:38:27.097Z,45.37
2023-05-19T14:50:38.198Z,42.40
2023-05-19T14:51:38.076Z,42.44
2023-05-19T14:52:38.088Z,42.29
2023-05-19T14:53:38.089Z,42.47
2023-05-19T14:54:38.902Z,42.68
2023-05-19T14:55:38.903Z,42.46
2023-05-19T14:56:38.332Z,42.82
2023-05-19T14:57:38.433Z,43.18
2023-05-19T14:58:38.130Z,43.98
2023-05-19T14:59:38.130Z,44.77
2023-05-19T15:00:38.025Z,45.18
2023-05-19T15:01:38.074Z,44.63
2023-05-19T15:02:38.084Z,44.79
2023-05-19T15:03:38.092Z,44.80
2023-05-19T15:04:38.023Z,44.25
2023-05-19T15:05:38.010Z,43.85
2023-05-19T15:09:19.857Z,43.68
2023-05-19T15:12:42.608Z,44.73
2023-05-19T15:16:08.253Z,46.52
2023-05-19T15:16:56.845Z,45.11
2023-05-19T15:17:55.891Z,44.40
2023-05-19T15:18:55.914Z,43.72
2023-05-19T15:19:55.906Z,43.29
2023-05-19T15:20:55.803Z,43.33
2023-05-19T15:26:37.962Z,46.71
2023-05-19T15:27:37.728Z,46.27
2023-05-19T15:28:37.716Z,46.15
2023-05-19T15:29:37.689Z,45.92
2023-05-19T15:30:37.873Z,45.64
2023-05-19T15:31:38.475Z,45.44
2023-05-19T15:32:37.778Z,44.99
2023-05-19T15:33:37.985Z,45.28
2023-05-19T15:36:47.198Z,46.27
2023-05-19T15:42:30.248Z,51.98
2023-05-19T15:43:29.509Z,50.11
2023-05-19T15:44:29.513Z,50.58
2023-05-19T15:45:29.439Z,51.34
2023-05-19T15:46:29.786Z,54.06
2023-05-19T15:47:29.685Z,54.32
2023-05-19T15:49:48.741Z,56.56
2023-05-19T15:56:50.356Z,58.19
2023-05-19T15:57:50.289Z,56.17
2023-05-19T16:00:09.771Z,58.53
2023-05-19T16:05:04.955Z,59.02
2023-05-19T16:07:10.643Z,57.03
2023-05-19T16:08:10.645Z,55.93
2023-05-19T16:09:10.616Z,54.75
2023-05-19T16:12:11.995Z,57.05
2023-05-19T16:13:11.921Z,56.49
2023-05-19T16:14:12.010Z,56.40
2023-05-19T16:17:01.379Z,59.46
2023-05-19T16:18:00.508Z,57.73
2023-05-19T16:19:00.326Z,55.95
2023-05-19T16:27:37.270Z,58.79
2023-05-19T16:28:36.985Z,58.91
2023-05-19T16:29:36.990Z,58.08
2023-05-19T16:30:37.521Z,60.06
2023-05-19T16:32:56.436Z,58.57
2023-05-19T16:35:40.177Z,61.23
2023-05-19T16:36:40.083Z,59.84
2023-05-19T16:39:37.578Z,60.26
2023-05-19T16:41:55.515Z,59.36
2023-05-19T16:42:55.415Z,59.91
2023-05-19T16:43:55.320Z,62.73
2023-05-19T16:46:47.262Z,59.41
2023-05-19T16:51:24.570Z,60.12
2023-05-19T16:52:12.074Z,61.03
2023-05-19T16:54:31.448Z,62.04
2023-05-19T16:55:31.617Z,61.93
2023-05-19T17:00:29.524Z,61.13
2023-05-19T17:01:29.625Z,62.32
2023-05-19T17:02:29.672Z,60.77
2023-05-19T17:03:29.773Z,62.45
2023-05-19T17:04:30.763Z,63.19
2023-05-19T17:05:30.247Z,62.03
2023-05-19T17:06:29.479Z,62.75
2023-05-19T17:07:29.456Z,61.50
2023-05-19T17:08:29.508Z,61.02
2023-05-19T17:09:29.437Z,61.32
2023-05-19T17:10:29.422Z,61.63
2023-05-19T17:11:29.495Z,61.11
2023-05-19T17:12:29.426Z,61.61
2023-05-19T17:13:29.417Z,60.24
2023-05-19T17:14:29.397Z,60.81
2023-05-19T17:15:29.405Z,60.86
2023-05-19T17:16:29.444Z,62.34
2023-05-19T17:17:29.424Z,62.83
2023-05-19T17:18:29.345Z,62.89
2023-05-19T17:19:29.406Z,63.50
2023-05-19T17:20:29.464Z,64.91
2023-05-19T17:21:29.364Z,64.34
2023-05-19T17:22:30.327Z,64.59
2023-05-19T17:23:29.450Z,65.01
2023-05-19T17:24:29.353Z,65.81
2023-05-19T17:25:29.370Z,66.22
2023-05-19T17:26:29.328Z,66.74
2023-05-19T17:27:29.309Z,64.82
2023-05-19T17:28:29.326Z,64.06
2023-05-19T17:29:29.325Z,66.85
2023-05-19T17:30:29.313Z,66.75
2023-05-19T17:31:29.324Z,65.09
2023-05-19T17:32:30.089Z,65.23
2023-05-19T17:34:49.408Z,67.19
2023-05-19T17:44:02.403Z,66.46
2023-05-19T17:45:01.982Z,65.50
2023-05-19T17:51:53.253Z,65.60
2023-05-19T17:56:45.991Z,65.14
2023-05-19T17:57:45.909Z,64.93
2023-05-19T17:58:45.906Z,64.66
2023-05-19T18:01:33.665Z,66.24
2023-05-19T18:02:33.444Z,65.82
2023-05-19T18:03:33.631Z,64.24
2023-05-19T18:04:33.346Z,63.22
2023-05-19T18:06:52.945Z,63.44
2023-05-19T18:07:52.764Z,63.60
2023-05-19T18:08:52.818Z,64.20
2023-05-19T18:12:33.164Z,66.83
2023-05-19T18:13:32.991Z,65.42
2023-05-19T18:20:17.171Z,65.97
2023-05-19T18:21:16.989Z,64.86
2023-05-19T18:22:16.971Z,64.57
2023-05-19T18:30:26.811Z,67.93
2023-05-19T18:32:44.823Z,65.92
2023-05-19T18:33:44.693Z,65.41
2023-05-19T18:34:44.649Z,65.72
2023-05-19T18:35:44.634Z,65.29
2023-05-19T18:38:36.856Z,66.67
2023-05-19T18:39:36.696Z,66.38
2023-05-19T18:40:37.285Z,66.49
2023-05-19T18:41:36.711Z,66.14
2023-05-19T18:50:03.317Z,68.25
2023-05-19T18:53:34.144Z,67.65
2023-05-19T18:54:33.682Z,67.07
2023-05-19T18:59:42.640Z,64.95
2023-05-19T19:07:13.668Z,67.76
2023-05-19T19:08:13.375Z,67.15
2023-05-19T19:10:33.318Z,65.80
2023-05-19T19:11:33.149Z,65.55
2023-05-19T19:12:33.107Z,64.90
2023-05-19T19:14:52.691Z,65.70
2023-05-19T19:17:41.570Z,68.39
2023-05-19T19:20:00.787Z,67.46
2023-05-19T19:21:01.080Z,67.44
2023-05-19T19:22:00.672Z,67.34
2023-05-19T19:23:00.628Z,67.31
2023-05-19T19:24:00.581Z,66.62
2023-05-19T19:25:00.591Z,67.45
2023-05-19T19:26:00.670Z,68.11
2023-05-19T19:27:00.593Z,68.25
2023-05-19T19:28:00.595Z,67.59
2023-05-19T19:29:00.645Z,67.56
2023-05-19T19:30:00.614Z,67.57
2023-05-19T19:31:00.609Z,67.95
2023-05-19T19:32:00.733Z,67.37
2023-05-19T19:33:00.563Z,67.33
2023-05-19T19:34:00.534Z,67.51
2023-05-19T19:35:00.546Z,67.47
2023-05-19T19:36:00.532Z,67.53
2023-05-19T19:37:00.571Z,67.23
2023-05-19T19:38:00.570Z,67.05
2023-05-19T19:39:00.537Z,66.93
2023-05-19T19:40:00.577Z,67.02
2023-05-19T19:41:00.480Z,66.90
2023-05-19T19:42:00.495Z,66.90
2023-05-19T19:43:00.489Z,67.14
2023-05-19T19:44:00.491Z,67.01
2023-05-19T19:45:00.466Z,67.55
2023-05-19T19:46:00.871Z,67.55
2023-05-19T19:47:00.415Z,66.73
2023-05-19T19:48:00.466Z,66.76
2023-05-19T19:49:00.471Z,66.72
2023-05-19T19:50:01.302Z,66.67
2023-05-19T19:51:00.405Z,66.65
2023-05-19T19:52:00.386Z,66.61
2023-05-19T19:53:00.378Z,66.41
2023-05-19T19:54:00.369Z,66.33
2023-05-19T19:55:00.512Z,66.55
2023-05-19T19:56:01.319Z,66.67
2023-05-19T19:57:00.385Z,66.89
2023-05-19T19:58:00.401Z,67.37
2023-05-19T19:59:00.386Z,66.80
2023-05-19T20:00:00.402Z,66.65
2023-05-19T20:01:00.418Z,66.60
2023-05-19T20:02:00.480Z,66.93
2023-05-19T20:03:04.234Z,66.77
2023-05-19T20:06:39.327Z,66.63
2023-05-19T20:07:39.249Z,66.86
2023-05-19T20:12:27.900Z,67.94
2023-05-19T20:13:28.576Z,67.96
2023-05-19T20:14:27.693Z,67.77
2023-05-19T20:17:22.464Z,69.78
2023-05-19T20:18:22.154Z,68.30
2023-05-19T20:19:22.311Z,68.55
2023-05-19T20:20:22.243Z,68.59
2023-05-19T20:21:22.133Z,68.78
2023-05-19T20:22:22.123Z,68.97
2023-05-19T20:23:22.081Z,69.16
2023-05-19T20:28:14.468Z,71.29
2023-05-19T20:29:14.292Z,70.19
2023-05-19T20:32:05.711Z,72.68
2023-05-19T20:34:25.058Z,71.39
2023-05-19T20:35:25.016Z,71.31